Time;durP1;ratioP1;P1;durP2;ratioP2;P2;SDS_P1;SDS_P2;PMS_P1;PMS_P2;Temp;Humidity;BMP_temperature;BMP_pressure;BME280_temperature;BME280_humidity;BME280_pressure;Samples;Min_cycle;Max_cycle;Signal;HPM_P1;HPM_P2
2024/01/25 00:00:57;;;;;;;39.25;7.75;;;6.10;99.90;;;;;;5071015;28;20044;-65
2024/01/25 00:03:23;;;;;;;39.58;9.90;;;6.10;99.90;;;;;;5066344;28;20059;-64
2024/01/25 00:05:49;;;;;;;38.22;8.32;;;6.10;99.90;;;;;;5073751;28;20450;-64
2024/01/25 00:08:14;;;;;;;46.30;8.63;;;6.10;99.90;;;;;;5065905;28;20067;-65
2024/01/25 00:10:40;;;;;;;47.90;9.23;;;6.10;99.90;;;;;;5069873;28;20032;-65
2024/01/25 00:13:05;;;;;;;41.05;8.77;;;6.10;99.90;;;;;;5064966;28;20043;-66
2024/01/25 00:15:31;;;;;;;43.88;8.43;;;6.10;99.90;;;;;;5071560;28;20052;-64
2024/01/25 00:17:57;;;;;;;39.08;9.05;;;6.10;99.90;;;;;;5057237;28;20040;-66
2024/01/25 00:20:22;;;;;;;;;;;6.10;99.90;;;;;;5057816;28;20048;-64
2024/01/25 00:22:48;;;;;;;34.35;7.78;;;6.10;99.90;;;;;;5050577;28;20486;-64
2024/01/25 00:25:13;;;;;;;48.85;8.68;;;6.10;99.90;;;;;;5056381;28;20631;-64
2024/01/25 00:27:39;;;;;;;53.22;9.70;;;6.10;99.90;;;;;;5058468;28;20381;-65
2024/01/25 00:30:05;;;;;;;44.45;8.13;;;6.10;99.90;;;;;;5042820;28;20037;-65
2024/01/25 00:32:30;;;;;;;43.28;8.73;;;6.10;99.90;;;;;;5041726;28;20045;-65
2024/01/25 00:34:56;;;;;;;47.72;10.43;;;6.10;99.90;;;;;;5049299;28;20123;-65
2024/01/25 00:37:22;;;;;;;;;;;6.10;99.90;;;;;;5056832;28;20037;-64
2024/01/25 00:39:49;;;;;;;39.85;8.90;;;6.10;99.90;;;;;;5048547;28;20376;-65
2024/01/25 00:42:16;;;;;;;46.00;9.93;;;6.10;99.90;;;;;;5049355;28;20036;-65
2024/01/25 00:44:41;;;;;;;33.92;8.45;;;6.00;99.90;;;;;;5056560;28;20052;-65
2024/01/25 00:47:08;;;;;;;45.72;9.45;;;6.10;99.90;;;;;;5047085;28;20055;-65
2024/01/25 00:49:35;;;;;;;51.78;10.75;;;6.10;99.90;;;;;;5056755;28;20036;-64
2024/01/25 00:52:03;;;;;;;49.83;9.85;;;6.10;99.90;;;;;;5047920;28;20120;-64
2024/01/25 00:54:29;;;;;;;43.33;9.55;;;6.10;99.90;;;;;;5048676;28;20048;-65
2024/01/25 00:56:55;;;;;;;34.28;8.90;;;6.10;99.90;;;;;;5055576;28;20041;-65
2024/01/25 00:59:21;;;;;;;47.90;9.77;;;6.10;99.90;;;;;;5052257;28;20115;-65
2024/01/25 01:01:50;;;;;;;38.47;9.63;;;6.10;99.90;;;;;;5050097;28;20510;-64
2024/01/25 01:04:16;;;;;;;48.63;9.82;;;6.10;99.90;;;;;;5051310;28;20037;-63
2024/01/25 01:06:42;;;;;;;41.90;9.30;;;6.10;99.90;;;;;;5057271;28;20045;-65
2024/01/25 01:09:08;;;;;;;49.03;10.52;;;6.10;99.90;;;;;;5045643;28;20139;-64
2024/01/25 01:11:34;;;;;;;38.67;8.63;;;6.00;99.90;;;;;;5046853;28;20053;-64
2024/01/25 01:13:59;;;;;;;46.45;8.38;;;6.10;99.90;;;;;;5049151;28;21218;-64
2024/01/25 01:16:26;;;;;;;48.05;10.75;;;6.10;99.90;;;;;;5046485;28;20621;-65
2024/01/25 01:18:51;;;;;;;48.63;10.05;;;6.10;99.90;;;;;;5041959;28;20033;-64
2024/01/25 01:21:17;;;;;;;46.08;9.38;;;6.10;99.90;;;;;;5050439;28;20033;-63
2024/01/25 01:23:42;;;;;;;48.13;10.55;;;6.10;99.90;;;;;;5051504;28;20037;-64
2024/01/25 01:26:11;;;;;;;40.40;10.63;;;6.10;99.90;;;;;;5047658;28;20055;-63
2024/01/25 01:28:36;;;;;;;53.92;10.02;;;6.10;99.90;;;;;;5042308;28;20040;-64
2024/01/25 01:31:02;;;;;;;51.25;10.07;;;6.00;99.90;;;;;;5040792;28;20039;-65
2024/01/25 01:33:28;;;;;;;43.58;10.00;;;6.00;99.90;;;;;;5048889;28;20059;-66
2024/01/25 01:35:53;;;;;;;41.70;10.57;;;6.00;99.90;;;;;;5046734;28;20120;-65
2024/01/25 01:38:19;;;;;;;55.15;12.75;;;5.90;99.90;;;;;;5048090;28;20147;-64
2024/01/25 01:40:45;;;;;;;39.35;10.63;;;5.90;99.90;;;;;;5048797;28;20072;-64
2024/01/25 01:43:19;;;;;;;46.15;11.50;;;5.90;99.90;;;;;;5048277;28;20041;-64
2024/01/25 01:45:45;;;;;;;47.10;10.45;;;5.90;99.90;;;;;;5046518;28;20045;-64
2024/01/25 01:48:11;;;;;;;39.00;9.23;;;5.90;99.90;;;;;;5049380;28;20037;-65
2024/01/25 01:50:37;;;;;;;53.83;10.90;;;5.90;99.90;;;;;;5047341;28;20029;-65
2024/01/25 01:53:04;;;;;;;46.42;10.15;;;5.80;99.90;;;;;;5047685;28;20037;-66
2024/01/25 01:55:30;;;;;;;49.00;11.00;;;5.80;99.90;;;;;;5040190;28;20037;-65
2024/01/25 01:57:56;;;;;;;42.95;9.50;;;5.80;99.90;;;;;;5047854;28;20120;-65
2024/01/25 02:00:23;;;;;;;36.17;8.63;;;5.80;99.90;;;;;;5039404;28;20547;-67
2024/01/25 02:02:49;;;;;;;36.72;9.55;;;5.80;99.90;;;;;;5045977;28;20043;-65
2024/01/25 02:05:15;;;;;;;44.88;9.95;;;5.80;99.90;;;;;;5049021;28;20044;-65
2024/01/25 02:07:42;;;;;;;55.63;11.32;;;5.80;99.90;;;;;;5059553;28;20036;-65
2024/01/25 02:10:08;;;;;;;44.95;11.00;;;5.80;99.90;;;;;;5044265;28;20054;-66
2024/01/25 02:12:34;;;;;;;51.97;11.70;;;5.70;99.90;;;;;;5052248;28;20055;-65
2024/01/25 02:15:00;;;;;;;46.95;10.45;;;5.70;99.90;;;;;;5051749;28;20041;-64
2024/01/25 02:17:25;;;;;;;49.08;10.40;;;5.70;99.90;;;;;;5054631;28;20049;-65
2024/01/25 02:19:51;;;;;;;47.38;10.15;;;5.70;99.90;;;;;;5058179;28;20075;-65
2024/01/25 02:22:19;;;;;;;45.58;8.70;;;5.70;99.90;;;;;;5058249;28;20115;-66
2024/01/25 02:24:45;;;;;;;57.78;11.43;;;5.70;99.90;;;;;;5048962;28;20037;-66
2024/01/25 02:27:10;;;;;;;41.22;7.95;;;5.70;99.90;;;;;;5049163;28;20044;-64
2024/01/25 02:29:36;;;;;;;36.35;8.82;;;5.70;99.90;;;;;;5047553;28;20404;-65
2024/01/25 02:32:03;;;;;;;41.08;9.15;;;5.70;99.90;;;;;;5046146;28;20044;-66
2024/01/25 02:34:28;;;;;;;43.28;8.93;;;5.70;99.90;;;;;;5058513;28;20077;-65
2024/01/25 02:36:54;;;;;;;52.38;9.18;;;5.70;99.90;;;;;;5045743;28;20542;-65
2024/01/25 02:39:20;;;;;;;48.70;8.73;;;5.70;99.90;;;;;;5055444;28;20045;-66
2024/01/25 02:41:45;;;;;;;46.97;9.15;;;5.70;99.90;;;;;;5053538;28;20082;-65
2024/01/25 02:44:11;;;;;;;52.88;11.30;;;5.70;99.90;;;;;;5047778;28;20086;-65
2024/01/25 02:46:37;;;;;;;49.05;8.65;;;5.70;99.90;;;;;;5055393;28;20056;-64
2024/01/25 02:49:03;;;;;;;38.60;8.40;;;5.60;99.90;;;;;;5052137;28;20043;-65
2024/01/25 02:51:29;;;;;;;35.42;7.63;;;5.60;99.90;;;;;;5052356;28;20041;-65
2024/01/25 02:53:54;;;;;;;52.50;9.68;;;5.70;99.90;;;;;;5055497;28;20036;-64
2024/01/25 02:56:20;;;;;;;39.80;8.05;;;5.60;99.90;;;;;;5055588;28;20052;-64
2024/01/25 02:58:46;;;;;;;52.67;10.30;;;5.60;99.90;;;;;;5052347;28;20424;-64
2024/01/25 03:01:11;;;;;;;47.67;8.80;;;5.60;99.90;;;;;;5049395;28;20036;-64
2024/01/25 03:03:37;;;;;;;46.90;9.95;;;5.50;99.90;;;;;;5051038;28;20041;-64
2024/01/25 03:06:03;;;;;;;44.05;8.32;;;5.50;99.90;;;;;;5054722;28;20044;-65
2024/01/25 03:08:29;;;;;;;48.22;9.18;;;5.50;99.90;;;;;;5048281;28;20124;-65
2024/01/25 03:10:56;;;;;;;37.22;7.75;;;5.50;99.90;;;;;;5051312;28;20037;-64
2024/01/25 03:13:21;;;;;;;47.38;8.20;;;5.50;99.90;;;;;;5056673;28;20119;-66
2024/01/25 03:15:47;;;;;;;37.33;7.07;;;5.50;99.90;;;;;;5053760;28;20490;-66
2024/01/25 03:18:12;;;;;;;45.63;7.45;;;5.40;99.90;;;;;;5045756;28;20041;-65
2024/01/25 03:20:38;;;;;;;42.95;7.82;;;5.40;99.90;;;;;;5044848;28;20033;-64
2024/01/25 03:23:04;;;;;;;40.88;8.35;;;5.40;99.90;;;;;;5049923;28;20056;-65
2024/01/25 03:25:31;;;;;;;34.13;7.47;;;5.40;99.90;;;;;;5046155;28;20038;-65
2024/01/25 03:27:57;;;;;;;42.92;7.78;;;5.40;99.90;;;;;;5040087;28;20053;-64
2024/01/25 03:30:22;;;;;;;39.60;7.57;;;5.30;99.90;;;;;;5044815;28;20056;-65
2024/01/25 03:32:48;;;;;;;34.83;7.25;;;5.30;99.90;;;;;;5049908;28;20041;-65
2024/01/25 03:35:14;;;;;;;39.42;6.80;;;5.40;99.90;;;;;;5045004;28;20037;-66
2024/01/25 03:37:39;;;;;;;41.17;8.13;;;5.30;99.90;;;;;;5047253;28;20033;-63
2024/01/25 03:40:05;;;;;;;48.10;10.27;;;5.30;99.90;;;;;;5053228;28;20056;-64
2024/01/25 03:42:31;;;;;;;39.53;6.57;;;5.30;99.90;;;;;;5044124;28;20041;-64
2024/01/25 03:44:57;;;;;;;38.15;8.18;;;5.30;99.90;;;;;;5045218;28;20044;-65
2024/01/25 03:47:22;;;;;;;43.00;7.55;;;5.30;99.90;;;;;;5038814;28;20098;-66
2024/01/25 03:49:48;;;;;;;38.70;8.07;;;5.20;99.90;;;;;;5043144;28;20350;-65
2024/01/25 03:52:13;;;;;;;35.63;7.20;;;5.20;99.90;;;;;;5041384;28;20045;-65
2024/01/25 03:54:39;;;;;;;36.67;6.70;;;5.20;99.90;;;;;;5049905;28;20041;-65
2024/01/25 03:57:05;;;;;;;35.30;8.38;;;5.20;99.90;;;;;;5048265;28;20040;-65
2024/01/25 03:59:31;;;;;;;47.75;6.70;;;5.20;99.90;;;;;;5053934;28;20052;-66
2024/01/25 04:01:56;;;;;;;34.03;6.95;;;5.20;99.90;;;;;;5047300;28;20763;-66
2024/01/25 04:04:22;;;;;;;42.13;7.57;;;5.20;99.90;;;;;;5045662;28;20033;-67
2024/01/25 04:06:48;;;;;;;29.98;7.53;;;5.20;99.90;;;;;;5052423;28;20076;-65
2024/01/25 04:09:15;;;;;;;29.42;6.70;;;5.10;99.90;;;;;;5055230;28;20044;-66
2024/01/25 04:11:41;;;;;;;48.60;8.65;;;5.00;99.90;;;;;;5046148;28;20131;-65
2024/01/25 04:14:06;;;;;;;35.08;6.53;;;5.00;99.90;;;;;;5052922;28;20453;-65
2024/01/25 04:16:33;;;;;;;42.70;6.68;;;5.00;99.90;;;;;;5049677;28;20052;-65
2024/01/25 04:18:59;;;;;;;26.40;5.72;;;4.90;99.90;;;;;;5054095;28;20396;-64
2024/01/25 04:21:24;;;;;;;31.15;5.05;;;4.90;99.90;;;;;;5052310;28;20048;-65
2024/01/25 04:23:50;;;;;;;41.20;6.63;;;4.80;99.90;;;;;;5058388;28;20091;-65
2024/01/25 04:26:18;;;;;;;31.65;5.82;;;4.80;99.90;;;;;;5055789;28;20032;-65
2024/01/25 04:28:44;;;;;;;31.77;4.80;;;4.80;99.90;;;;;;5057986;28;20048;-64
2024/01/25 04:31:10;;;;;;;37.55;6.03;;;4.80;99.90;;;;;;5052777;28;20036;-64
2024/01/25 04:33:35;;;;;;;40.40;6.82;;;4.90;99.90;;;;;;5056142;28;20048;-64
2024/01/25 04:36:01;;;;;;;20.88;4.88;;;4.90;99.90;;;;;;5054301;28;20606;-65
2024/01/25 04:38:26;;;;;;;36.33;5.65;;;5.00;99.90;;;;;;5059341;28;20048;-66
2024/01/25 04:40:52;;;;;;;30.05;5.70;;;5.00;99.90;;;;;;5050500;28;20451;-66
2024/01/25 04:43:17;;;;;;;41.50;6.57;;;5.00;99.90;;;;;;5055326;28;20045;-65
2024/01/25 04:45:43;;;;;;;37.05;6.35;;;5.00;99.90;;;;;;5056746;28;20763;-66
2024/01/25 04:48:08;;;;;;;33.60;5.97;;;5.00;99.90;;;;;;5055099;28;20135;-65
2024/01/25 04:50:34;;;;;;;29.05;5.95;;;5.00;99.90;;;;;;5047651;28;20064;-65
2024/01/25 04:53:02;;;;;;;36.17;6.30;;;4.90;99.90;;;;;;5052847;28;20457;-64
2024/01/25 04:55:27;;;;;;;30.70;7.28;;;5.00;99.90;;;;;;5054997;28;20048;-65
2024/01/25 04:57:53;;;;;;;36.47;7.28;;;5.00;99.90;;;;;;5054336;28;20040;-64
2024/01/25 05:00:21;;;;;;;35.83;6.45;;;5.00;99.90;;;;;;5047680;28;20060;-64
2024/01/25 05:02:47;;;;;;;41.05;6.43;;;5.00;99.90;;;;;;5048666;28;20058;-64
2024/01/25 05:05:12;;;;;;;30.20;6.50;;;4.90;99.90;;;;;;5049710;28;20040;-64
2024/01/25 05:07:38;;;;;;;45.08;6.70;;;4.90;99.90;;;;;;5046658;28;20553;-65
2024/01/25 05:10:04;;;;;;;38.70;5.60;;;4.90;99.90;;;;;;5046263;28;20707;-64
2024/01/25 05:12:30;;;;;;;34.70;5.75;;;4.90;99.90;;;;;;5047602;28;20047;-65
2024/01/25 05:14:55;;;;;;;27.20;5.50;;;4.90;99.90;;;;;;5051105;28;20073;-65
2024/01/25 05:17:21;;;;;;;47.03;7.38;;;4.90;99.90;;;;;;5051121;28;20040;-66
2024/01/25 05:19:46;;;;;;;31.98;6.82;;;4.90;99.90;;;;;;5053724;28;20178;-66
2024/01/25 05:22:12;;;;;;;32.25;5.57;;;5.00;99.90;;;;;;5047326;28;20119;-65
2024/01/25 05:24:37;;;;;;;36.50;6.25;;;5.00;99.90;;;;;;5049270;28;20532;-64
2024/01/25 05:27:03;;;;;;;28.77;5.57;;;5.00;99.90;;;;;;5052113;28;20044;-65
2024/01/25 05:29:28;;;;;;;40.33;7.13;;;5.00;99.90;;;;;;5050198;28;20706;-65
2024/01/25 05:31:54;;;;;;;31.83;7.35;;;5.00;99.90;;;;;;5045169;28;20052;-63
2024/01/25 05:34:19;;;;;;;33.63;5.68;;;5.00;99.90;;;;;;5050026;28;20519;-64
2024/01/25 05:36:45;;;;;;;29.70;5.88;;;5.00;99.90;;;;;;5046894;28;20040;-65
2024/01/25 05:39:10;;;;;;;41.50;7.10;;;5.00;99.90;;;;;;5050421;28;20159;-64
2024/01/25 05:41:36;;;;;;;33.63;5.65;;;4.90;99.90;;;;;;5047027;28;20206;-65
2024/01/25 05:44:01;;;;;;;36.00;6.60;;;4.90;99.90;;;;;;5047251;28;20114;-65
2024/01/25 05:46:27;;;;;;;46.20;7.15;;;4.90;99.90;;;;;;5045221;28;20473;-65
2024/01/25 05:48:52;;;;;;;29.88;5.13;;;4.90;99.90;;;;;;5047656;28;20041;-66
2024/01/25 05:51:18;;;;;;;46.13;7.47;;;4.80;99.90;;;;;;5043505;28;20033;-66
2024/01/25 05:53:44;;;;;;;39.65;5.30;;;4.80;99.90;;;;;;5047559;28;20060;-66
2024/01/25 05:56:09;;;;;;;38.55;7.28;;;4.80;99.90;;;;;;5046387;28;20128;-65
2024/01/25 05:58:35;;;;;;;33.53;6.03;;;4.80;99.90;;;;;;5048573;28;20104;-66
2024/01/25 06:01:01;;;;;;;36.92;5.68;;;4.80;99.90;;;;;;5049661;28;20037;-67
2024/01/25 06:03:26;;;;;;;32.85;6.28;;;4.80;99.90;;;;;;5057689;28;20041;-65
2024/01/25 06:05:52;;;;;;;32.20;6.32;;;4.80;99.90;;;;;;5051240;28;20095;-65
2024/01/25 06:08:17;;;;;;;31.92;5.43;;;4.80;99.90;;;;;;5048329;28;20033;-65
2024/01/25 06:10:43;;;;;;;36.78;6.65;;;4.70;99.90;;;;;;5047785;28;20029;-65
2024/01/25 06:13:09;;;;;;;37.72;5.72;;;4.70;99.90;;;;;;5048504;28;20047;-66
2024/01/25 06:15:35;;;;;;;27.05;5.70;;;4.70;99.90;;;;;;5046307;28;20497;-65
2024/01/25 06:18:00;;;;;;;43.08;6.53;;;4.70;99.90;;;;;;5050466;28;20056;-65
2024/01/25 06:20:26;;;;;;;32.22;6.00;;;4.70;99.90;;;;;;5049006;28;20048;-66
2024/01/25 06:22:51;;;;;;;39.92;7.30;;;4.60;99.90;;;;;;5049630;28;20112;-66
2024/01/25 06:25:17;;;;;;;40.40;6.35;;;4.60;99.90;;;;;;5049562;28;20566;-64
2024/01/25 06:27:43;;;;;;;38.95;5.50;;;4.60;99.90;;;;;;5049966;28;20442;-65
2024/01/25 06:30:09;;;;;;;34.80;6.45;;;4.50;99.90;;;;;;5043690;28;20041;-65
2024/01/25 06:32:34;;;;;;;36.90;6.07;;;4.60;99.90;;;;;;5025130;28;20645;-66
2024/01/25 06:35:00;;;;;;;33.30;5.28;;;4.50;99.90;;;;;;5030149;28;20051;-64
2024/01/25 06:37:26;;;;;;;32.95;6.28;;;4.50;99.90;;;;;;5028479;28;20689;-65
2024/01/25 06:39:51;;;;;;;28.50;5.40;;;4.50;99.90;;;;;;5029531;28;20055;-64
2024/01/25 06:42:17;;;;;;;34.20;5.75;;;4.50;99.90;;;;;;5023720;28;20050;-65
2024/01/25 06:44:43;;;;;;;33.70;5.82;;;4.50;99.90;;;;;;5030162;28;20049;-66
2024/01/25 06:47:08;;;;;;;33.97;6.18;;;4.50;99.90;;;;;;5029006;28;20049;-65
2024/01/25 06:49:34;;;;;;;32.83;6.50;;;4.60;99.90;;;;;;5029540;28;20773;-65
2024/01/25 06:51:59;;;;;;;29.27;5.47;;;4.50;99.90;;;;;;5024982;28;20061;-65
2024/01/25 06:54:25;;;;;;;30.95;5.88;;;4.50;99.90;;;;;;5025193;28;20044;-65
2024/01/25 06:56:51;;;;;;;38.50;6.78;;;4.50;99.90;;;;;;5026411;28;20435;-65
2024/01/25 06:59:17;;;;;;;28.65;5.75;;;4.50;99.90;;;;;;5028205;28;20048;-66
2024/01/25 07:01:43;;;;;;;31.50;5.88;;;4.50;99.90;;;;;;5038145;28;20412;-64
2024/01/25 07:04:08;;;;;;;32.00;5.95;;;4.40;99.90;;;;;;5047207;28;20037;-65
2024/01/25 07:06:34;;;;;;;25.17;5.70;;;4.40;99.90;;;;;;5048600;28;20071;-64
2024/01/25 07:08:59;;;;;;;28.27;5.78;;;4.50;99.90;;;;;;5047554;28;20032;-65
2024/01/25 07:11:25;;;;;;;60.05;8.10;;;4.50;99.90;;;;;;5047191;28;20471;-65
2024/01/25 07:13:51;;;;;;;37.03;6.40;;;4.40;99.90;;;;;;5048674;28;20037;-65
2024/01/25 07:16:19;;;;;;;33.17;5.93;;;4.40;99.90;;;;;;5046646;28;20400;-65
2024/01/25 07:18:44;;;;;;;33.47;6.30;;;4.40;99.90;;;;;;5048697;28;20565;-65
2024/01/25 07:21:10;;;;;;;32.38;6.75;;;4.40;99.90;;;;;;5047602;28;20045;-64
2024/01/25 07:23:36;;;;;;;26.85;7.05;;;4.40;99.90;;;;;;5046517;28;20420;-66
2024/01/25 07:26:01;;;;;;;33.15;5.50;;;4.40;99.90;;;;;;5037345;28;20057;-66
2024/01/25 07:28:27;;;;;;;29.17;6.32;;;4.40;99.90;;;;;;5046608;28;20114;-65
2024/01/25 07:30:52;;;;;;;38.85;8.02;;;4.40;99.90;;;;;;5049070;28;20044;-63
2024/01/25 07:33:18;;;;;;;25.80;6.22;;;4.40;99.90;;;;;;5049646;28;20557;-63
2024/01/25 07:35:47;;;;;;;35.63;5.90;;;4.40;99.90;;;;;;5046053;28;20042;-67
2024/01/25 07:38:13;;;;;;;37.75;6.68;;;4.40;99.90;;;;;;5047292;28;20037;-68
2024/01/25 07:40:39;;;;;;;28.88;6.18;;;4.50;99.90;;;;;;5049428;28;20037;-68
2024/01/25 07:43:04;;;;;;;44.67;7.78;;;4.50;99.90;;;;;;5049040;28;20242;-67
2024/01/25 07:45:31;;;;;;;31.88;7.22;;;4.50;99.90;;;;;;5049365;28;20048;-66
2024/01/25 07:47:57;;;;;;;34.08;7.18;;;4.50;99.90;;;;;;5050202;28;20039;-67
2024/01/25 07:50:22;;;;;;;34.08;7.65;;;4.50;99.90;;;;;;5048492;28;20037;-65
2024/01/25 07:52:49;;;;;;;43.08;7.40;;;4.50;99.90;;;;;;5050400;28;20650;-65
2024/01/25 07:55:15;;;;;;;36.92;7.65;;;4.50;99.90;;;;;;5047135;28;20041;-64
2024/01/25 07:57:41;;;;;;;39.75;7.63;;;4.50;99.90;;;;;;5049710;28;20531;-65
2024/01/25 08:00:08;;;;;;;34.92;7.28;;;4.50;99.90;;;;;;5049630;28;20120;-67
2024/01/25 08:02:39;;;;;;;35.08;6.85;;;4.50;99.90;;;;;;5048131;28;20048;-66
2024/01/25 08:05:04;;;;;;;36.72;7.68;;;4.50;99.90;;;;;;5045940;28;20512;-66
2024/01/25 08:07:30;;;;;;;30.48;7.47;;;4.50;99.90;;;;;;5047877;28;20055;-66
2024/01/25 08:09:58;;;;;;;37.80;7.40;;;4.50;99.90;;;;;;5048068;28;20037;-66
2024/01/25 08:12:24;;;;;;;41.05;7.63;;;4.50;99.90;;;;;;5047789;28;20377;-67
2024/01/25 08:14:50;;;;;;;31.92;7.63;;;4.40;99.90;;;;;;5050080;28;20122;-65
2024/01/25 08:17:15;;;;;;;28.20;5.88;;;4.50;99.90;;;;;;5048041;28;20111;-65
2024/01/25 08:19:41;;;;;;;29.90;6.65;;;4.50;99.90;;;;;;5045535;28;20115;-66
2024/01/25 08:22:07;;;;;;;27.77;6.75;;;4.50;99.90;;;;;;5047098;28;20041;-65
2024/01/25 08:24:32;;;;;;;24.00;6.47;;;4.50;99.90;;;;;;5050080;28;20037;-65
2024/01/25 08:26:58;;;;;;;29.40;7.05;;;4.60;99.90;;;;;;5048205;28;20036;-66
2024/01/25 08:29:24;;;;;;;33.78;6.70;;;4.70;99.90;;;;;;5048935;28;20064;-67
2024/01/25 08:31:49;;;;;;;35.03;6.82;;;4.80;99.90;;;;;;5051466;28;20081;-66
2024/01/25 08:34:15;;;;;;;32.95;8.15;;;4.90;99.90;;;;;;5060672;28;20045;-66
2024/01/25 08:36:40;;;;;;;35.50;6.65;;;4.90;99.90;;;;;;5058209;28;20044;-67
2024/01/25 08:39:08;;;;;;;31.25;6.57;;;4.80;99.90;;;;;;5041101;28;20041;-66
2024/01/25 08:41:34;;;;;;;36.95;6.65;;;4.80;99.90;;;;;;5049993;28;20048;-65
2024/01/25 08:44:00;;;;;;;25.42;5.45;;;4.90;99.90;;;;;;5055002;28;20033;-67
2024/01/25 08:46:26;;;;;;;22.88;5.57;;;4.90;99.90;;;;;;5048583;28;20037;-66
2024/01/25 08:48:52;;;;;;;37.47;6.65;;;5.00;99.90;;;;;;5053754;28;20047;-66
2024/01/25 08:51:17;;;;;;;36.03;8.43;;;5.10;99.90;;;;;;5055279;28;20115;-67
2024/01/25 08:53:43;;;;;;;39.60;7.63;;;5.10;99.90;;;;;;5063314;28;20041;-66
2024/01/25 08:56:09;;;;;;;23.52;6.70;;;5.10;99.90;;;;;;5058927;28;20514;-68
2024/01/25 08:58:35;;;;;;;23.70;6.55;;;5.20;99.90;;;;;;5060381;28;20036;-67
2024/01/25 09:01:01;;;;;;;37.42;6.38;;;5.10;99.90;;;;;;5052579;28;20033;-66
2024/01/25 09:03:26;;;;;;;30.88;7.95;;;5.20;99.90;;;;;;5056531;28;20720;-67
2024/01/25 09:05:52;;;;;;;30.10;6.82;;;5.10;99.90;;;;;;5060819;28;20065;-67
2024/01/25 09:08:17;;;;;;;31.65;6.93;;;5.10;99.90;;;;;;5040735;28;20045;-68
2024/01/25 09:10:44;;;;;;;27.13;5.68;;;5.10;99.90;;;;;;5052438;28;20469;-66
2024/01/25 09:13:10;;;;;;;39.40;8.82;;;5.20;99.90;;;;;;5056145;28;20048;-66
2024/01/25 09:15:36;;;;;;;25.85;5.82;;;5.10;99.90;;;;;;5046574;28;20045;-66
2024/01/25 09:18:01;;;;;;;38.70;7.32;;;5.20;99.90;;;;;;5054750;28;20032;-67
2024/01/25 09:20:27;;;;;;;23.95;6.30;;;5.20;99.90;;;;;;5049928;28;20135;-67
2024/01/25 09:22:53;;;;;;;30.63;6.00;;;5.30;99.90;;;;;;5042371;28;20033;-66
2024/01/25 09:25:19;;;;;;;31.85;5.75;;;5.30;99.90;;;;;;5044700;28;20125;-68
2024/01/25 09:27:48;;;;;;;34.78;6.03;;;5.30;99.90;;;;;;5046519;28;20503;-67
2024/01/25 09:30:14;;;;;;;28.60;6.40;;;5.30;99.90;;;;;;5040205;28;20045;-69
2024/01/25 09:32:40;;;;;;;27.88;5.65;;;5.30;99.90;;;;;;5048394;28;20037;-66
2024/01/25 09:35:06;;;;;;;32.97;6.88;;;5.40;99.90;;;;;;5048693;28;20044;-69
2024/01/25 09:37:31;;;;;;;27.08;5.57;;;5.40;99.90;;;;;;5047503;28;20051;-67
2024/01/25 09:39:58;;;;;;;33.97;6.80;;;5.40;99.90;;;;;;5046998;28;20044;-67
2024/01/25 09:42:24;;;;;;;31.63;6.25;;;5.40;99.90;;;;;;5047963;28;20045;-67
2024/01/25 09:44:53;;;;;;;30.38;7.05;;;5.30;99.90;;;;;;5047120;28;20090;-66
2024/01/25 09:47:21;;;;;;;24.15;5.25;;;5.30;99.90;;;;;;5046503;28;20045;-67
2024/01/25 09:49:46;;;;;;;28.15;5.28;;;5.40;99.90;;;;;;5046494;28;20064;-67
2024/01/25 09:52:13;;;;;;;20.23;5.10;;;5.40;99.90;;;;;;5045421;28;20764;-67
2024/01/25 09:54:39;;;;;;;30.75;5.50;;;5.40;99.90;;;;;;5048112;28;20114;-66
2024/01/25 09:57:18;;;;;;;32.38;5.05;;;5.40;99.90;;;;;;5045982;28;20064;-67
2024/01/25 09:59:44;;;;;;;34.50;6.15;;;5.40;99.90;;;;;;5045950;28;20065;-66
2024/01/25 10:02:11;;;;;;;27.77;6.00;;;5.40;99.90;;;;;;5047005;28;20068;-67
2024/01/25 10:04:37;;;;;;;20.35;5.30;;;5.40;99.90;;;;;;5040455;28;20049;-67
2024/01/25 10:07:03;;;;;;;28.33;5.93;;;5.40;99.90;;;;;;5043588;28;20060;-67
2024/01/25 10:09:31;;;;;;;20.45;5.03;;;5.50;99.90;;;;;;5046538;28;20052;-66
2024/01/25 10:11:56;;;;;;;26.17;5.28;;;5.50;99.90;;;;;;5042729;28;20136;-66
2024/01/25 10:14:22;;;;;;;34.20;6.15;;;5.60;99.90;;;;;;5045157;28;20105;-66
2024/01/25 10:16:48;;;;;;;28.30;5.80;;;5.60;99.90;;;;;;5043138;28;20040;-66
2024/01/25 10:19:14;;;;;;;25.45;5.68;;;5.50;99.90;;;;;;5045715;28;20099;-69
2024/01/25 10:21:41;;;;;;;29.20;5.05;;;5.60;99.90;;;;;;5042373;28;20600;-67
2024/01/25 10:24:07;;;;;;;20.63;4.47;;;5.60;99.90;;;;;;5046882;28;20108;-66
2024/01/25 10:26:35;;;;;;;30.55;5.22;;;5.70;99.90;;;;;;5044197;28;20055;-66
2024/01/25 10:29:02;;;;;;;57.20;18.50;;;5.60;99.90;;;;;;5044675;28;20119;-66
2024/01/25 10:31:29;;;;;;;25.73;6.43;;;5.60;99.90;;;;;;5034649;28;20038;-67
2024/01/25 10:33:55;;;;;;;31.15;5.90;;;5.70;99.90;;;;;;5027933;28;20041;-67
2024/01/25 10:36:25;;;;;;;24.98;5.55;;;5.60;99.90;;;;;;5026663;28;20074;-66
2024/01/25 10:38:53;;;;;;;22.25;5.10;;;5.60;99.90;;;;;;5025742;28;20045;-66
2024/01/25 10:41:19;;;;;;;31.08;6.03;;;5.70;99.90;;;;;;5023571;28;20037;-66
2024/01/25 10:43:45;;;;;;;25.50;6.20;;;5.70;99.90;;;;;;5026070;28;20554;-67
2024/01/25 10:46:11;;;;;;;39.42;11.00;;;5.70;99.90;;;;;;5026275;28;20037;-67
2024/01/25 10:48:37;;;;;;;29.65;6.22;;;5.50;99.90;;;;;;5024176;28;20061;-66
2024/01/25 10:51:05;;;;;;;29.00;5.70;;;5.50;99.90;;;;;;5026213;28;20485;-67
2024/01/25 10:53:34;;;;;;;29.63;5.95;;;5.50;99.90;;;;;;5025197;28;20041;-67
2024/01/25 10:56:01;;;;;;;26.08;5.18;;;5.50;99.90;;;;;;5026851;28;20049;-67
2024/01/25 10:58:33;;;;;;;21.40;5.07;;;5.50;99.90;;;;;;5024556;28;20397;-67
2024/01/25 11:00:59;;;;;;;39.03;6.57;;;5.60;99.90;;;;;;5031233;28;20041;-66
2024/01/25 11:03:30;;;;;;;29.60;5.32;;;5.50;99.90;;;;;;5046531;28;20606;-66
2024/01/25 11:06:11;;;;;;;24.50;5.38;;;5.60;99.90;;;;;;5045876;28;20049;-67
2024/01/25 11:08:41;;;;;;;19.55;5.60;;;5.60;99.90;;;;;;5044321;28;20451;-68
2024/01/25 11:11:08;;;;;;;21.52;5.22;;;5.70;99.90;;;;;;5047828;28;20120;-68
2024/01/25 11:13:35;;;;;;;25.67;5.35;;;5.70;99.90;;;;;;5046768;28;20045;-67
2024/01/25 11:16:17;;;;;;;27.27;4.88;;;5.70;99.90;;;;;;5043965;28;20655;-67
2024/01/25 11:18:50;;;;;;;21.15;5.15;;;5.70;99.90;;;;;;5044990;28;20053;-67
2024/01/25 11:21:46;;;;;;;20.48;5.38;;;5.80;99.90;;;;;;5051291;28;20123;-67
2024/01/25 11:24:14;;;;;;;21.25;4.40;;;5.80;99.90;;;;;;5040824;28;20045;-67
2024/01/25 11:26:40;;;;;;;23.77;5.78;;;5.90;99.90;;;;;;5043814;28;20041;-66
2024/01/25 11:29:05;;;;;;;28.38;5.57;;;6.00;99.90;;;;;;5042941;28;20033;-68
2024/01/25 11:31:31;;;;;;;23.55;6.05;;;6.00;99.90;;;;;;5044003;28;20815;-66
2024/01/25 11:34:01;;;;;;;24.23;5.68;;;6.10;99.90;;;;;;5040252;28;20048;-67
2024/01/25 11:36:27;;;;;;;32.55;5.38;;;6.20;99.90;;;;;;5043553;28;20056;-68
2024/01/25 11:38:52;;;;;;;25.92;6.40;;;6.20;99.90;;;;;;5041432;28;20044;-68
2024/01/25 11:41:19;;;;;;;22.48;5.93;;;6.30;99.90;;;;;;5045649;28;20067;-67
2024/01/25 11:43:44;;;;;;;32.72;6.43;;;6.30;99.90;;;;;;5045716;28;20638;-67
2024/01/25 11:46:10;;;;;;;30.85;6.00;;;6.40;99.90;;;;;;5041529;28;20045;-67
2024/01/25 11:48:40;;;;;;;30.83;6.38;;;6.40;99.90;;;;;;5040083;28;20206;-67
2024/01/25 11:51:06;;;;;;;33.70;6.25;;;6.40;99.90;;;;;;5040740;28;20529;-67
2024/01/25 11:53:32;;;;;;;36.95;6.00;;;6.40;99.90;;;;;;5041071;28;20088;-67
2024/01/25 11:55:57;;;;;;;;;;;6.40;99.90;;;;;;5046028;28;20044;-67
2024/01/25 11:58:23;;;;;;;23.63;6.38;;;6.40;99.90;;;;;;5041142;28;20307;-67
2024/01/25 12:00:50;;;;;;;26.45;6.13;;;6.40;99.90;;;;;;5049952;28;20090;-67
2024/01/25 12:03:16;;;;;;;29.25;6.82;;;6.20;99.90;;;;;;5040951;28;20525;-67
2024/01/25 12:05:41;;;;;;;26.33;7.43;;;6.20;99.90;;;;;;5044854;28;20135;-67
2024/01/25 12:08:13;;;;;;;26.55;6.43;;;6.10;99.90;;;;;;5049470;28;20036;-66
2024/01/25 12:10:38;;;;;;;37.10;7.40;;;6.10;99.90;;;;;;5045146;28;20087;-66
2024/01/25 12:13:09;;;;;;;28.77;6.65;;;6.00;99.90;;;;;;5044580;28;20536;-67
2024/01/25 12:15:35;;;;;;;36.00;7.40;;;6.10;99.90;;;;;;5049700;28;20053;-66
2024/01/25 12:18:01;;;;;;;36.75;7.38;;;6.20;99.90;;;;;;5053367;28;20132;-66
2024/01/25 12:20:28;;;;;;;33.55;7.30;;;6.30;99.90;;;;;;5049661;28;20126;-66
2024/01/25 12:22:54;;;;;;;31.90;7.18;;;6.30;99.90;;;;;;5049308;28;20056;-67
2024/01/25 12:25:19;;;;;;;29.30;6.75;;;6.30;99.90;;;;;;5054895;28;20436;-67
2024/01/25 12:27:48;;;;;;;27.05;6.50;;;6.20;99.90;;;;;;5047841;28;20041;-67
2024/01/25 12:30:14;;;;;;;31.02;6.40;;;6.10;99.90;;;;;;5047728;28;20037;-70
2024/01/25 12:32:40;;;;;;;30.30;6.70;;;6.00;99.90;;;;;;5053113;28;20045;-67
2024/01/25 12:35:06;;;;;;;34.20;8.02;;;6.00;99.90;;;;;;5055715;28;20127;-68
2024/01/25 12:37:32;;;;;;;37.78;8.20;;;6.00;99.90;;;;;;5059617;28;20607;-67
2024/01/25 12:39:57;;;;;;;33.33;7.90;;;6.00;99.90;;;;;;5057138;28;20135;-68